createdAt,value
2023-05-27T00:00:10.160Z,2.30
2023-05-27T00:02:37.042Z,2.42
2023-05-27T00:07:32.187Z,1.80
2023-05-27T00:09:58.864Z,2.30
2023-05-27T00:12:25.319Z,1.88
2023-05-27T00:14:51.681Z,2.17
2023-05-27T00:17:18.613Z,2.22
2023-05-27T00:19:46.040Z,2.08
2023-05-27T00:22:12.705Z,2.10
2023-05-27T00:24:40.515Z,1.83
2023-05-27T00:27:07.672Z,1.90
2023-05-27T00:29:34.748Z,1.90
2023-05-27T00:34:31.447Z,2.00
2023-05-27T00:36:58.467Z,1.63
2023-05-27T00:41:52.129Z,1.75
2023-05-27T00:44:19.075Z,2.33
2023-05-27T00:46:48.460Z,1.75
2023-05-27T00:49:15.029Z,2.15
2023-05-27T00:51:42.238Z,1.70
2023-05-27T00:54:09.321Z,2.10
2023-05-27T00:59:03.901Z,1.98
2023-05-27T01:01:30.706Z,1.83
2023-05-27T01:03:57.905Z,1.45
2023-05-27T01:09:21.740Z,1.92
2023-05-27T01:12:04.191Z,2.33
2023-05-27T01:14:32.954Z,1.88
2023-05-27T01:17:02.814Z,2.13
2023-05-27T01:19:34.449Z,1.88
2023-05-27T01:22:02.138Z,2.35
2023-05-27T01:24:28.845Z,1.60
2023-05-27T01:27:01.874Z,2.25
2023-05-27T01:29:29.330Z,1.70
2023-05-27T01:32:06.427Z,2.08
2023-05-27T01:34:44.653Z,1.75
2023-05-27T01:37:17.133Z,1.88
2023-05-27T01:39:44.071Z,1.90
2023-05-27T01:44:38.216Z,2.05
2023-05-27T01:47:05.051Z,2.30
2023-05-27T01:49:31.811Z,1.95
2023-05-27T01:51:58.284Z,2.05
2023-05-27T01:54:24.768Z,2.17
2023-05-27T01:56:51.203Z,1.77
2023-05-27T01:59:17.656Z,2.08
2023-05-27T02:01:44.247Z,1.98
2023-05-27T02:04:11.001Z,1.92
2023-05-27T02:06:37.885Z,2.75
2023-05-27T02:09:05.016Z,1.60
2023-05-27T02:16:24.212Z,1.80
2023-05-27T02:18:50.919Z,1.92
2023-05-27T02:21:17.686Z,1.67
2023-05-27T02:23:44.133Z,1.75
2023-05-27T02:26:10.759Z,1.88
2023-05-27T02:28:37.235Z,1.42
2023-05-27T02:31:03.749Z,1.60
2023-05-27T02:33:31.549Z,2.08
2023-05-27T02:35:58.049Z,2.00
2023-05-27T02:38:24.493Z,2.08
2023-05-27T02:40:50.935Z,2.00
2023-05-27T02:43:17.834Z,2.67
2023-05-27T02:45:44.274Z,2.50
2023-05-27T02:48:10.838Z,2.45
2023-05-27T02:50:37.358Z,2.03
2023-05-27T02:53:03.778Z,1.75
2023-05-27T02:55:30.575Z,1.92
2023-05-27T02:57:57.007Z,1.90
2023-05-27T03:00:23.485Z,1.77
2023-05-27T03:02:49.958Z,2.47
2023-05-27T03:05:16.805Z,1.88
2023-05-27T03:07:43.312Z,2.00
2023-05-27T03:10:10.032Z,1.95
2023-05-27T03:12:36.502Z,1.95
2023-05-27T03:15:02.985Z,2.00
2023-05-27T03:17:29.447Z,2.40
2023-05-27T03:19:55.927Z,1.70
2023-05-27T03:22:22.538Z,2.13
2023-05-27T03:24:48.949Z,2.25
2023-05-27T03:27:15.403Z,2.00
2023-05-27T03:29:42.849Z,2.05
2023-05-27T03:32:09.357Z,2.33
2023-05-27T03:34:36.033Z,2.03
2023-05-27T03:37:02.563Z,1.98
2023-05-27T03:39:29.000Z,2.13
2023-05-27T03:41:55.573Z,2.35
2023-05-27T03:44:22.321Z,2.50
2023-05-27T03:46:48.673Z,2.20
2023-05-27T03:49:15.235Z,2.10
2023-05-27T03:51:41.645Z,1.73
2023-05-27T03:54:08.121Z,1.98
2023-05-27T03:56:34.588Z,1.63
2023-05-27T03:59:01.798Z,1.60
2023-05-27T04:03:55.538Z,1.50
2023-05-27T04:06:22.066Z,2.05
2023-05-27T04:08:48.478Z,2.10
2023-05-27T04:11:15.092Z,2.08
2023-05-27T04:13:42.130Z,1.83
2023-05-27T04:16:08.606Z,1.80
2023-05-27T04:18:36.655Z,2.22
2023-05-27T04:21:03.181Z,2.00
2023-05-27T04:23:29.591Z,2.00
2023-05-27T04:25:56.009Z,2.58
2023-05-27T04:28:22.802Z,2.03
2023-05-27T04:30:49.438Z,2.10
2023-05-27T04:33:17.101Z,2.60
2023-05-27T04:35:44.822Z,2.15
2023-05-27T04:38:17.268Z,2.25
2023-05-27T04:40:46.205Z,1.95
2023-05-27T04:43:15.955Z,2.40
2023-05-27T04:45:44.634Z,2.28
2023-05-27T04:48:11.642Z,2.20
2023-05-27T04:50:38.542Z,1.95
2023-05-27T04:53:07.407Z,2.10
2023-05-27T04:55:34.443Z,2.45
2023-05-27T04:58:04.547Z,2.30
2023-05-27T05:00:51.551Z,2.15
2023-05-27T05:03:22.378Z,2.10
2023-05-27T05:05:53.607Z,2.00
2023-05-27T05:08:21.076Z,2.17
2023-05-27T05:10:48.565Z,2.03
2023-05-27T05:13:17.009Z,1.92
2023-05-27T05:15:46.571Z,1.95
2023-05-27T05:18:13.941Z,2.08
2023-05-27T05:20:40.783Z,2.25
2023-05-27T05:23:09.227Z,3.38
2023-05-27T05:25:39.348Z,2.28
2023-05-27T05:28:06.211Z,1.92
2023-05-27T05:30:32.910Z,2.45
2023-05-27T05:33:00.375Z,2.38
2023-05-27T05:35:27.068Z,2.20
2023-05-27T05:37:53.722Z,2.25
2023-05-27T05:40:20.244Z,2.50
2023-05-27T05:42:47.056Z,2.17
2023-05-27T05:45:13.476Z,2.22
2023-05-27T05:47:40.019Z,2.33
2023-05-27T05:50:07.046Z,2.00
2023-05-27T05:52:33.423Z,2.30
2023-05-27T05:54:59.887Z,2.30
2023-05-27T05:57:26.487Z,2.58
2023-05-27T05:59:52.946Z,2.70
2023-05-27T06:02:19.621Z,2.08
2023-05-27T06:04:46.277Z,1.73
2023-05-27T06:07:12.748Z,3.03
2023-05-27T06:09:39.104Z,1.90
2023-05-27T06:12:05.828Z,2.05
2023-05-27T06:14:32.267Z,2.28
2023-05-27T06:16:58.793Z,2.28
2023-05-27T06:19:25.223Z,2.42
2023-05-27T06:21:52.301Z,2.20
2023-05-27T06:26:46.711Z,2.50
2023-05-27T06:29:13.106Z,2.42
2023-05-27T06:31:39.702Z,2.50
2023-05-27T06:34:06.388Z,2.63
2023-05-27T06:36:32.809Z,2.47
2023-05-27T06:38:59.662Z,2.80
2023-05-27T06:41:26.666Z,2.20
2023-05-27T06:46:19.515Z,2.00
2023-05-27T06:48:45.996Z,2.63
2023-05-27T06:51:12.548Z,2.40
2023-05-27T06:53:38.937Z,1.95
2023-05-27T06:56:05.648Z,2.53
2023-05-27T06:58:33.880Z,2.03
2023-05-27T07:01:00.944Z,2.75
2023-05-27T07:03:27.404Z,2.53
2023-05-27T07:05:54.014Z,2.03
2023-05-27T07:08:20.822Z,2.70
2023-05-27T07:10:47.353Z,2.53
2023-05-27T07:13:15.044Z,2.45
2023-05-27T07:15:41.604Z,2.25
2023-05-27T07:18:08.122Z,2.35
2023-05-27T07:20:35.730Z,2.20
2023-05-27T07:23:02.575Z,2.28
2023-05-27T07:25:28.980Z,2.67
2023-05-27T07:27:55.452Z,2.17
2023-05-27T07:30:21.923Z,3.00
2023-05-27T07:32:49.426Z,2.85
2023-05-27T07:35:16.202Z,2.65
2023-05-27T07:37:42.956Z,2.80
2023-05-27T07:40:09.554Z,2.33
2023-05-27T07:42:37.613Z,3.05
2023-05-27T07:45:04.720Z,2.70
2023-05-27T07:47:31.220Z,2.65
2023-05-27T07:49:57.695Z,2.60
2023-05-27T07:52:24.046Z,2.63
2023-05-27T07:54:55.262Z,2.60
2023-05-27T07:57:22.495Z,2.17
2023-05-27T07:59:49.019Z,2.75
2023-05-27T08:02:15.597Z,2.50
2023-05-27T08:04:44.606Z,2.70
2023-05-27T08:07:11.308Z,2.58
2023-05-27T08:09:37.688Z,2.33
2023-05-27T08:12:04.495Z,2.45
2023-05-27T08:14:30.983Z,2.67
2023-05-27T08:16:57.454Z,2.75
2023-05-27T08:19:23.927Z,2.67
2023-05-27T08:21:50.539Z,2.60
2023-05-27T08:24:17.037Z,2.70
2023-05-27T08:26:43.520Z,3.13
2023-05-27T08:29:10.878Z,2.33
2023-05-27T08:31:38.127Z,2.88
2023-05-27T08:34:04.806Z,2.67
2023-05-27T08:36:32.703Z,3.00
2023-05-27T08:38:59.160Z,2.80
2023-05-27T08:41:28.036Z,3.03
2023-05-27T08:43:59.624Z,2.80
2023-05-27T08:46:33.164Z,3.08
2023-05-27T08:48:59.874Z,2.53
2023-05-27T08:51:27.550Z,2.40
2023-05-27T08:53:54.183Z,2.70
2023-05-27T08:56:24.159Z,3.00
2023-05-27T08:58:51.854Z,3.10
2023-05-27T09:01:23.287Z,3.17
2023-05-27T09:03:49.800Z,2.72
2023-05-27T09:06:16.195Z,2.80
2023-05-27T09:08:50.331Z,2.95
2023-05-27T09:11:26.642Z,3.30
2023-05-27T09:13:56.941Z,2.72
2023-05-27T09:16:23.768Z,2.97
2023-05-27T09:18:51.356Z,3.03
2023-05-27T09:21:18.275Z,3.03
2023-05-27T09:26:12.195Z,3.40
2023-05-27T09:28:39.361Z,3.17
2023-05-27T09:31:07.939Z,2.65
2023-05-27T09:33:37.332Z,3.33
2023-05-27T09:36:04.668Z,3.13
2023-05-27T09:38:32.062Z,3.10
2023-05-27T09:40:59.556Z,3.15
2023-05-27T09:43:27.229Z,3.15
2023-05-27T09:46:04.641Z,2.83
2023-05-27T09:48:32.528Z,3.47
2023-05-27T09:51:00.952Z,2.78
2023-05-27T09:53:28.816Z,3.50
2023-05-27T09:55:56.679Z,3.20
2023-05-27T09:58:24.547Z,3.17
2023-05-27T10:00:52.097Z,4.13
2023-05-27T10:03:22.258Z,3.42
2023-05-27T10:05:50.833Z,2.95
2023-05-27T10:08:25.806Z,3.25
2023-05-27T10:10:54.154Z,3.42
2023-05-27T10:13:21.894Z,3.42
2023-05-27T10:15:50.582Z,2.97
2023-05-27T10:18:24.936Z,3.15
2023-05-27T10:20:51.821Z,3.33
2023-05-27T10:23:29.132Z,3.00
2023-05-27T10:26:07.512Z,2.72
2023-05-27T10:28:40.689Z,3.50
2023-05-27T10:31:08.386Z,3.10
2023-05-27T10:33:37.345Z,2.92
2023-05-27T10:36:14.932Z,2.60
2023-05-27T10:38:55.116Z,2.75
2023-05-27T10:41:23.501Z,3.65
2023-05-27T10:44:00.140Z,2.80
2023-05-27T10:46:27.796Z,3.58
2023-05-27T10:48:54.549Z,2.83
2023-05-27T10:53:50.572Z,3.20
2023-05-27T10:56:26.939Z,2.90
2023-05-27T10:58:56.912Z,3.22
2023-05-27T11:01:29.529Z,3.13
2023-05-27T11:03:56.068Z,2.67
2023-05-27T11:08:49.660Z,3.03
2023-05-27T11:11:17.041Z,3.03
2023-05-27T11:13:47.449Z,2.70
2023-05-27T11:16:15.292Z,3.38
2023-05-27T11:18:43.987Z,2.33
2023-05-27T11:21:11.789Z,2.80
2023-05-27T11:23:44.772Z,2.55
2023-05-27T11:26:18.366Z,2.80
2023-05-27T11:28:52.063Z,3.40
2023-05-27T11:31:20.908Z,3.05
2023-05-27T11:33:50.856Z,2.80
2023-05-27T11:36:17.690Z,2.80
2023-05-27T11:39:01.477Z,3.00
2023-05-27T11:41:30.126Z,2.90
2023-05-27T11:43:59.017Z,3.17
2023-05-27T11:46:38.554Z,2.80
2023-05-27T11:49:06.116Z,3.05
2023-05-27T11:51:35.946Z,2.53
2023-05-27T11:54:02.378Z,2.78
2023-05-27T11:58:57.025Z,2.80
2023-05-27T12:01:23.688Z,2.83
2023-05-27T12:03:50.537Z,2.72
2023-05-27T12:06:17.160Z,2.45
2023-05-27T12:08:43.896Z,2.65
2023-05-27T12:11:10.665Z,2.55
2023-05-27T12:13:37.141Z,2.70
2023-05-27T12:18:31.160Z,2.85
2023-05-27T12:20:57.736Z,2.72
2023-05-27T12:23:24.232Z,2.67
2023-05-27T12:25:51.008Z,2.55
2023-05-27T12:28:17.747Z,2.80
2023-05-27T12:33:23.768Z,2.40
2023-05-27T12:35:56.857Z,2.70
2023-05-27T12:38:27.413Z,2.60
2023-05-27T12:41:07.084Z,3.13
2023-05-27T12:43:34.356Z,2.60
2023-05-27T12:46:03.824Z,2.80
2023-05-27T12:48:33.236Z,2.72
2023-05-27T12:51:04.259Z,2.88
2023-05-27T12:53:34.308Z,2.20
2023-05-27T12:56:02.385Z,2.35
2023-05-27T12:58:31.241Z,2.50
2023-05-27T13:01:00.744Z,3.20
2023-05-27T13:03:29.970Z,2.95
2023-05-27T13:05:57.489Z,2.55
2023-05-27T13:08:27.184Z,2.67
2023-05-27T13:10:56.882Z,3.35
2023-05-27T13:13:29.169Z,2.92
2023-05-27T13:15:59.270Z,2.70
2023-05-27T13:18:26.522Z,2.50
2023-05-27T13:20:56.021Z,2.88
2023-05-27T13:23:23.587Z,3.40
2023-05-27T13:25:51.170Z,2.78
2023-05-27T13:28:18.369Z,2.30
2023-05-27T13:30:47.683Z,2.90
2023-05-27T13:33:16.909Z,2.60
2023-05-27T13:35:49.644Z,2.45
2023-05-27T13:38:21.023Z,2.60
2023-05-27T13:40:53.678Z,2.70
2023-05-27T13:45:57.635Z,2.72
2023-05-27T13:48:33.959Z,3.58
2023-05-27T13:51:04.100Z,2.67
2023-05-27T13:53:33.898Z,2.65
2023-05-27T13:56:03.248Z,2.55
2023-05-27T13:58:34.793Z,2.92
2023-05-27T14:01:02.834Z,3.10
2023-05-27T14:03:33.929Z,3.08
2023-05-27T14:06:05.392Z,2.58
2023-05-27T14:08:32.623Z,2.78
2023-05-27T14:10:59.639Z,2.50
2023-05-27T14:13:26.880Z,2.33
2023-05-27T14:15:55.290Z,3.47
2023-05-27T14:18:23.066Z,2.70
2023-05-27T14:20:53.640Z,2.55
2023-05-27T14:23:23.558Z,2.85
2023-05-27T14:25:50.991Z,3.60
2023-05-27T14:28:19.868Z,2.83
2023-05-27T14:30:46.821Z,2.83
2023-05-27T14:33:14.051Z,3.33
2023-05-27T14:35:42.027Z,3.15
2023-05-27T14:38:12.571Z,2.67
2023-05-27T14:40:42.951Z,2.63
2023-05-27T14:43:11.587Z,2.55
2023-05-27T14:45:38.977Z,2.65
2023-05-27T14:48:06.179Z,2.67
2023-05-27T14:50:43.270Z,2.60
2023-05-27T14:53:10.378Z,2.88
2023-05-27T14:55:37.686Z,2.55
2023-05-27T14:58:08.144Z,2.53
2023-05-27T15:00:35.086Z,2.72
2023-05-27T15:03:06.280Z,2.60
2023-05-27T15:05:33.697Z,3.42
2023-05-27T15:08:03.053Z,2.85
2023-05-27T15:10:30.054Z,2.95
2023-05-27T15:12:57.274Z,2.75
2023-05-27T15:15:24.662Z,2.50
2023-05-27T15:17:51.958Z,2.70
2023-05-27T15:20:19.445Z,2.72
2023-05-27T15:22:47.515Z,2.65
2023-05-27T15:25:22.729Z,2.80
2023-05-27T15:27:49.790Z,3.22
2023-05-27T15:30:19.405Z,3.47
2023-05-27T15:32:49.971Z,3.00
2023-05-27T15:35:20.266Z,2.80
2023-05-27T15:37:50.615Z,2.33
2023-05-27T15:40:17.670Z,2.88
2023-05-27T15:42:50.103Z,3.00
2023-05-27T15:45:22.008Z,2.95
2023-05-27T15:47:51.123Z,2.55
2023-05-27T15:50:18.504Z,2.15
2023-05-27T15:52:48.692Z,2.95
2023-05-27T15:55:16.001Z,2.88
2023-05-27T15:57:43.339Z,3.00
2023-05-27T16:00:11.729Z,2.22
2023-05-27T16:02:40.199Z,2.92
2023-05-27T16:05:10.508Z,2.70
2023-05-27T16:07:43.107Z,2.33
2023-05-27T16:10:10.886Z,2.25
2023-05-27T16:12:38.282Z,2.60
2023-05-27T16:15:06.311Z,3.15
2023-05-27T16:17:35.999Z,2.92
2023-05-27T16:20:03.699Z,2.45
2023-05-27T16:22:31.308Z,2.83
2023-05-27T16:25:02.923Z,2.72
2023-05-27T16:27:30.200Z,3.85
2023-05-27T16:29:57.412Z,2.78
2023-05-27T16:32:26.985Z,2.80
2023-05-27T16:34:54.435Z,2.40
2023-05-27T16:37:24.229Z,2.80
2023-05-27T16:39:51.391Z,3.60
2023-05-27T16:42:20.433Z,2.60
2023-05-27T16:44:52.563Z,3.03
2023-05-27T16:47:18.980Z,2.80
2023-05-27T16:49:45.408Z,2.90
2023-05-27T16:52:11.798Z,3.00
2023-05-27T16:54:38.249Z,2.80
2023-05-27T16:57:05.045Z,2.88
2023-05-27T16:59:32.266Z,2.80
2023-05-27T17:01:58.707Z,2.33
2023-05-27T17:04:25.295Z,2.92
2023-05-27T17:06:51.781Z,2.63
2023-05-27T17:09:18.307Z,3.17
2023-05-27T17:11:44.789Z,2.65
2023-05-27T17:14:11.235Z,2.65
2023-05-27T17:16:38.171Z,2.70
2023-05-27T17:19:05.055Z,2.83
2023-05-27T17:21:31.875Z,2.85
2023-05-27T17:23:58.339Z,2.50
2023-05-27T17:26:24.756Z,2.72
2023-05-27T17:28:51.250Z,2.28
2023-05-27T17:31:18.277Z,2.20
2023-05-27T17:33:44.803Z,3.08
2023-05-27T17:36:12.053Z,2.92
2023-05-27T17:38:39.563Z,3.22
2023-05-27T17:41:08.100Z,2.92
2023-05-27T17:43:34.881Z,2.75
2023-05-27T17:46:01.236Z,2.88
2023-05-27T17:48:27.676Z,2.85
2023-05-27T17:50:54.492Z,3.13
2023-05-27T17:53:21.117Z,3.13
2023-05-27T17:55:47.993Z,2.70
2023-05-27T17:58:14.544Z,3.13
2023-05-27T18:00:41.210Z,2.92
2023-05-27T18:03:08.049Z,2.92
2023-05-27T18:05:35.041Z,2.95
2023-05-27T18:08:01.725Z,2.83
2023-05-27T18:10:28.574Z,3.75
2023-05-27T18:12:56.644Z,3.00
2023-05-27T18:15:23.087Z,2.85
2023-05-27T18:17:49.580Z,3.13
2023-05-27T18:20:16.871Z,4.22
2023-05-27T18:22:43.343Z,3.70
2023-05-27T18:25:10.616Z,2.55
2023-05-27T18:27:40.072Z,3.50
2023-05-27T18:30:07.671Z,3.47
2023-05-27T18:32:48.084Z,3.00
2023-05-27T18:35:30.440Z,3.00
2023-05-27T18:37:59.074Z,3.50
2023-05-27T18:40:27.709Z,3.30
2023-05-27T18:42:54.297Z,2.95
2023-05-27T18:45:24.986Z,2.90
2023-05-27T18:47:51.441Z,2.72
2023-05-27T18:50:31.080Z,3.05
2023-05-27T18:52:58.725Z,3.38
2023-05-27T18:55:25.143Z,3.13
2023-05-27T18:57:51.775Z,2.80
2023-05-27T19:00:18.276Z,3.33
2023-05-27T19:02:45.856Z,2.83
2023-05-27T19:05:12.324Z,3.20
2023-05-27T19:07:38.698Z,3.50
2023-05-27T19:12:32.357Z,3.30
2023-05-27T19:14:58.771Z,3.35
2023-05-27T19:19:51.508Z,3.08
2023-05-27T19:24:46.734Z,3.05
2023-05-27T19:27:13.226Z,3.28
2023-05-27T19:32:05.981Z,2.75
2023-05-27T19:36:58.814Z,2.90
2023-05-27T19:41:51.707Z,2.72
2023-05-27T19:46:44.411Z,3.45
2023-05-27T19:51:39.269Z,3.17
2023-05-27T19:54:05.680Z,3.40
2023-05-27T19:58:59.464Z,3.47
2023-05-27T20:01:26.224Z,3.45
2023-05-27T20:03:52.986Z,2.97
2023-05-27T20:06:19.514Z,3.78
2023-05-27T20:08:45.932Z,3.65
2023-05-27T20:11:12.377Z,3.30
2023-05-27T20:13:38.967Z,3.20
2023-05-27T20:16:05.815Z,3.35
2023-05-27T20:18:32.235Z,3.45
2023-05-27T20:20:58.792Z,3.30
2023-05-27T20:25:51.643Z,3.13
2023-05-27T20:28:18.962Z,4.43
2023-05-27T20:30:48.669Z,4.30
2023-05-27T20:33:15.126Z,5.85
2023-05-27T20:35:42.139Z,6.15
2023-05-27T20:38:09.287Z,6.18
2023-05-27T20:43:02.084Z,5.05
2023-05-27T20:45:28.487Z,4.20
2023-05-27T20:47:55.518Z,3.85
2023-05-27T20:50:22.803Z,3.50
2023-05-27T20:52:49.396Z,3.63
2023-05-27T20:55:16.012Z,3.92
2023-05-27T20:57:42.465Z,4.57
2023-05-27T21:00:09.496Z,5.03
2023-05-27T21:02:37.171Z,4.22
2023-05-27T21:05:04.586Z,4.18
2023-05-27T21:07:31.004Z,4.22
2023-05-27T21:09:57.401Z,4.35
2023-05-27T21:12:23.858Z,4.20
2023-05-27T21:14:50.460Z,4.60
2023-05-27T21:19:44.835Z,3.78
2023-05-27T21:22:11.407Z,4.32
2023-05-27T21:24:38.224Z,4.53
2023-05-27T21:27:04.973Z,3.95
2023-05-27T21:31:59.170Z,3.60
2023-05-27T21:34:25.862Z,3.65
2023-05-27T21:39:19.976Z,3.92
2023-05-27T21:41:46.559Z,4.10
2023-05-27T21:44:13.012Z,4.00
2023-05-27T21:46:39.348Z,4.03
2023-05-27T21:49:05.817Z,4.00
2023-05-27T21:51:32.380Z,3.90
2023-05-27T21:56:27.721Z,3.92
2023-05-27T21:58:54.107Z,3.80
2023-05-27T22:01:20.656Z,3.00
2023-05-27T22:06:13.542Z,3.60
2023-05-27T22:08:39.921Z,3.35
2023-05-27T22:11:06.407Z,3.80
2023-05-27T22:13:32.799Z,4.45
2023-05-27T22:16:01.753Z,3.95
2023-05-27T22:18:28.931Z,3.92
2023-05-27T22:20:57.012Z,4.25
2023-05-27T22:23:23.539Z,3.70
2023-05-27T22:25:49.894Z,3.53
2023-05-27T22:28:16.337Z,4.10
2023-05-27T22:30:42.781Z,3.63
2023-05-27T22:33:09.221Z,4.13
2023-05-27T22:35:35.724Z,3.75
2023-05-27T22:38:02.219Z,3.22
2023-05-27T22:40:28.601Z,3.40
2023-05-27T22:42:55.085Z,3.92
2023-05-27T22:45:21.511Z,4.40
2023-05-27T22:47:47.987Z,3.35
2023-05-27T22:50:14.468Z,3.35
2023-05-27T22:52:40.908Z,4.25
2023-05-27T22:55:07.693Z,4.13
2023-05-27T22:57:34.097Z,4.15
2023-05-27T23:00:00.566Z,3.88
2023-05-27T23:02:27.642Z,3.95
2023-05-27T23:04:54.097Z,4.18
2023-05-27T23:07:20.589Z,4.00
2023-05-27T23:09:47.155Z,4.00
2023-05-27T23:12:13.598Z,3.72
2023-05-27T23:14:39.967Z,4.32
2023-05-27T23:17:07.082Z,3.67
2023-05-27T23:19:33.519Z,3.55
2023-05-27T23:21:59.990Z,3.50
2023-05-27T23:24:26.505Z,4.13
2023-05-27T23:26:52.877Z,3.42
2023-05-27T23:29:19.240Z,3.88
2023-05-27T23:31:45.735Z,4.05
2023-05-27T23:34:12.279Z,4.47
2023-05-27T23:36:38.671Z,5.03
2023-05-27T23:39:05.156Z,3.92
2023-05-27T23:41:31.658Z,3.53
2023-05-27T23:43:58.056Z,4.60
2023-05-27T23:46:24.920Z,3.75
2023-05-27T23:48:51.426Z,3.88
2023-05-27T23:51:17.936Z,3.85
2023-05-27T23:53:44.367Z,3.50
2023-05-27T23:56:10.757Z,3.75
2023-05-27T23:58:37.207Z,3.58
